sensor_id;sensor_type;location;lat;lon;timestamp;P1;durP1;ratioP1;P2;durP2;ratioP2
10144;SDS011;5113;41.822;23.564;2022-10-31T00:00:53;8.40;;;5.63;;
10144;SDS011;5113;41.822;23.564;2022-10-31T00:03:59;9.10;;;6.30;;
10144;SDS011;5113;41.822;23.564;2022-10-31T00:07:05;10.40;;;5.90;;
10144;SDS011;5113;41.822;23.564;2022-10-31T00:10:12;9.10;;;6.77;;
10144;SDS011;5113;41.822;23.564;2022-10-31T00:13:19;19.70;;;5.63;;
10144;SDS011;5113;41.822;23.564;2022-10-31T00:16:31;6.60;;;4.93;;
10144;SDS011;5113;41.822;23.564;2022-10-31T00:19:37;6.23;;;5.13;;
10144;SDS011;5113;41.822;23.564;2022-10-31T00:22:43;9.13;;;4.97;;
10144;SDS011;5113;41.822;23.564;2022-10-31T00:25:50;7.23;;;5.77;;
10144;SDS011;5113;41.822;23.564;2022-10-31T00:28:57;8.30;;;5.10;;
10144;SDS011;5113;41.822;23.564;2022-10-31T00:32:04;5.53;;;4.83;;
10144;SDS011;5113;41.822;23.564;2022-10-31T00:35:10;9.87;;;6.13;;
10144;SDS011;5113;41.822;23.564;2022-10-31T00:38:17;7.97;;;5.60;;
10144;SDS011;5113;41.822;23.564;2022-10-31T00:41:23;8.67;;;6.47;;
10144;SDS011;5113;41.822;23.564;2022-10-31T00:44:30;8.73;;;5.63;;
10144;SDS011;5113;41.822;23.564;2022-10-31T00:47:36;7.67;;;5.77;;
10144;SDS011;5113;41.822;23.564;2022-10-31T00:50:43;12.70;;;6.07;;
10144;SDS011;5113;41.822;23.564;2022-10-31T00:53:49;11.57;;;7.07;;
10144;SDS011;5113;41.822;23.564;2022-10-31T00:56:55;9.23;;;5.90;;
10144;SDS011;5113;41.822;23.564;2022-10-31T01:00:03;5.37;;;4.87;;
10144;SDS011;5113;41.822;23.564;2022-10-31T01:03:10;19.80;;;9.07;;
10144;SDS011;5113;41.822;23.564;2022-10-31T01:06:16;12.80;;;8.63;;
10144;SDS011;5113;41.822;23.564;2022-10-31T01:09:22;18.50;;;9.40;;
10144;SDS011;5113;41.822;23.564;2022-10-31T01:12:29;13.67;;;7.90;;
10144;SDS011;5113;41.822;23.564;2022-10-31T01:15:36;12.57;;;6.87;;
10144;SDS011;5113;41.822;23.564;2022-10-31T01:18:43;10.80;;;7.03;;
10144;SDS011;5113;41.822;23.564;2022-10-31T01:21:49;8.27;;;6.50;;
10144;SDS011;5113;41.822;23.564;2022-10-31T01:24:55;8.03;;;5.77;;
10144;SDS011;5113;41.822;23.564;2022-10-31T01:28:02;8.00;;;5.83;;
10144;SDS011;5113;41.822;23.564;2022-10-31T01:31:09;9.07;;;4.73;;
10144;SDS011;5113;41.822;23.564;2022-10-31T01:34:16;6.23;;;4.90;;
10144;SDS011;5113;41.822;23.564;2022-10-31T01:37:23;8.17;;;5.13;;
10144;SDS011;5113;41.822;23.564;2022-10-31T01:40:29;11.20;;;6.27;;
10144;SDS011;5113;41.822;23.564;2022-10-31T01:43:42;13.33;;;6.63;;
10144;SDS011;5113;41.822;23.564;2022-10-31T01:46:55;9.90;;;6.17;;
10144;SDS011;5113;41.822;23.564;2022-10-31T01:50:04;12.23;;;7.20;;
10144;SDS011;5113;41.822;23.564;2022-10-31T01:53:16;12.37;;;6.43;;
10144;SDS011;5113;41.822;23.564;2022-10-31T01:56:30;8.77;;;6.10;;
10144;SDS011;5113;41.822;23.564;2022-10-31T01:59:40;10.77;;;6.47;;
10144;SDS011;5113;41.822;23.564;2022-10-31T02:02:51;11.23;;;6.47;;
10144;SDS011;5113;41.822;23.564;2022-10-31T02:06:00;15.47;;;9.87;;
10144;SDS011;5113;41.822;23.564;2022-10-31T02:09:13;22.10;;;8.73;;
10144;SDS011;5113;41.822;23.564;2022-10-31T02:12:21;10.70;;;7.27;;
10144;SDS011;5113;41.822;23.564;2022-10-31T02:15:28;23.73;;;8.33;;
10144;SDS011;5113;41.822;23.564;2022-10-31T02:18:37;10.00;;;7.57;;
10144;SDS011;5113;41.822;23.564;2022-10-31T02:21:44;16.43;;;6.83;;
10144;SDS011;5113;41.822;23.564;2022-10-31T02:25:02;11.43;;;6.40;;
10144;SDS011;5113;41.822;23.564;2022-10-31T02:28:29;8.07;;;7.27;;
10144;SDS011;5113;41.822;23.564;2022-10-31T02:31:50;12.93;;;6.93;;
10144;SDS011;5113;41.822;23.564;2022-10-31T02:35:06;17.57;;;9.90;;
10144;SDS011;5113;41.822;23.564;2022-10-31T02:38:23;20.73;;;10.80;;
10144;SDS011;5113;41.822;23.564;2022-10-31T02:41:40;60.03;;;24.77;;
10144;SDS011;5113;41.822;23.564;2022-10-31T02:44:55;13.17;;;8.07;;
10144;SDS011;5113;41.822;23.564;2022-10-31T02:48:08;33.70;;;15.43;;
10144;SDS011;5113;41.822;23.564;2022-10-31T02:51:16;13.93;;;8.90;;
10144;SDS011;5113;41.822;23.564;2022-10-31T02:54:23;15.23;;;10.67;;
10144;SDS011;5113;41.822;23.564;2022-10-31T02:57:31;13.20;;;9.93;;
10144;SDS011;5113;41.822;23.564;2022-10-31T03:00:41;15.63;;;9.53;;
10144;SDS011;5113;41.822;23.564;2022-10-31T03:04:06;11.10;;;7.00;;
10144;SDS011;5113;41.822;23.564;2022-10-31T03:07:37;13.57;;;8.00;;
10144;SDS011;5113;41.822;23.564;2022-10-31T03:10:49;17.37;;;11.47;;
10144;SDS011;5113;41.822;23.564;2022-10-31T03:14:01;14.30;;;8.23;;
10144;SDS011;5113;41.822;23.564;2022-10-31T03:17:15;16.67;;;8.10;;
10144;SDS011;5113;41.822;23.564;2022-10-31T03:20:28;13.10;;;7.73;;
10144;SDS011;5113;41.822;23.564;2022-10-31T03:23:42;12.23;;;7.70;;
10144;SDS011;5113;41.822;23.564;2022-10-31T03:26:53;12.13;;;7.27;;
10144;SDS011;5113;41.822;23.564;2022-10-31T03:30:03;14.57;;;9.27;;
10144;SDS011;5113;41.822;23.564;2022-10-31T03:33:13;21.60;;;12.10;;
10144;SDS011;5113;41.822;23.564;2022-10-31T03:36:24;24.20;;;11.40;;
10144;SDS011;5113;41.822;23.564;2022-10-31T03:39:32;14.83;;;9.87;;
10144;SDS011;5113;41.822;23.564;2022-10-31T03:42:43;27.77;;;18.07;;
10144;SDS011;5113;41.822;23.564;2022-10-31T03:45:57;14.87;;;10.00;;
10144;SDS011;5113;41.822;23.564;2022-10-31T03:49:04;15.47;;;9.23;;
10144;SDS011;5113;41.822;23.564;2022-10-31T03:52:13;10.03;;;8.67;;
10144;SDS011;5113;41.822;23.564;2022-10-31T03:55:26;15.57;;;8.67;;
10144;SDS011;5113;41.822;23.564;2022-10-31T03:58:38;13.87;;;7.33;;
10144;SDS011;5113;41.822;23.564;2022-10-31T04:01:49;11.40;;;8.00;;
10144;SDS011;5113;41.822;23.564;2022-10-31T04:04:59;23.43;;;10.53;;
10144;SDS011;5113;41.822;23.564;2022-10-31T04:08:08;13.83;;;9.03;;
10144;SDS011;5113;41.822;23.564;2022-10-31T04:11:19;14.40;;;9.00;;
10144;SDS011;5113;41.822;23.564;2022-10-31T04:14:30;13.00;;;9.67;;
10144;SDS011;5113;41.822;23.564;2022-10-31T04:17:40;21.67;;;13.40;;
10144;SDS011;5113;41.822;23.564;2022-10-31T04:20:58;27.57;;;13.13;;
10144;SDS011;5113;41.822;23.564;2022-10-31T04:24:07;25.87;;;14.00;;
10144;SDS011;5113;41.822;23.564;2022-10-31T04:27:14;25.60;;;15.43;;
10144;SDS011;5113;41.822;23.564;2022-10-31T04:30:20;21.87;;;14.73;;
10144;SDS011;5113;41.822;23.564;2022-10-31T04:33:27;35.33;;;18.43;;
10144;SDS011;5113;41.822;23.564;2022-10-31T04:36:33;35.67;;;17.73;;
10144;SDS011;5113;41.822;23.564;2022-10-31T04:39:41;41.57;;;20.83;;
10144;SDS011;5113;41.822;23.564;2022-10-31T04:42:47;35.00;;;20.37;;
10144;SDS011;5113;41.822;23.564;2022-10-31T04:45:54;39.77;;;19.83;;
10144;SDS011;5113;41.822;23.564;2022-10-31T04:49:00;31.20;;;16.90;;
10144;SDS011;5113;41.822;23.564;2022-10-31T04:52:07;50.80;;;23.80;;
10144;SDS011;5113;41.822;23.564;2022-10-31T04:55:15;76.87;;;32.20;;
10144;SDS011;5113;41.822;23.564;2022-10-31T04:58:21;72.43;;;36.60;;
10144;SDS011;5113;41.822;23.564;2022-10-31T05:01:28;47.70;;;22.53;;
10144;SDS011;5113;41.822;23.564;2022-10-31T05:04:34;20.63;;;12.80;;
10144;SDS011;5113;41.822;23.564;2022-10-31T05:07:40;24.40;;;14.00;;
10144;SDS011;5113;41.822;23.564;2022-10-31T05:10:49;30.70;;;16.10;;
10144;SDS011;5113;41.822;23.564;2022-10-31T05:13:56;30.77;;;20.13;;
10144;SDS011;5113;41.822;23.564;2022-10-31T05:17:02;21.60;;;14.60;;
10144;SDS011;5113;41.822;23.564;2022-10-31T05:20:09;27.33;;;16.43;;
10144;SDS011;5113;41.822;23.564;2022-10-31T05:23:15;26.93;;;16.47;;
10144;SDS011;5113;41.822;23.564;2022-10-31T05:26:23;22.10;;;15.03;;
10144;SDS011;5113;41.822;23.564;2022-10-31T05:29:30;23.30;;;14.30;;
10144;SDS011;5113;41.822;23.564;2022-10-31T05:32:38;20.20;;;14.13;;
10144;SDS011;5113;41.822;23.564;2022-10-31T05:35:44;20.23;;;12.90;;
10144;SDS011;5113;41.822;23.564;2022-10-31T05:38:50;32.57;;;17.87;;
10144;SDS011;5113;41.822;23.564;2022-10-31T05:41:58;32.67;;;19.57;;
10144;SDS011;5113;41.822;23.564;2022-10-31T05:45:05;51.90;;;27.00;;
10144;SDS011;5113;41.822;23.564;2022-10-31T05:48:13;62.70;;;33.33;;
10144;SDS011;5113;41.822;23.564;2022-10-31T05:51:19;43.50;;;24.73;;
10144;SDS011;5113;41.822;23.564;2022-10-31T05:54:25;53.97;;;29.47;;
10144;SDS011;5113;41.822;23.564;2022-10-31T05:57:33;38.13;;;24.30;;
10144;SDS011;5113;41.822;23.564;2022-10-31T06:00:39;40.40;;;22.63;;
10144;SDS011;5113;41.822;23.564;2022-10-31T06:03:45;56.70;;;33.03;;
10144;SDS011;5113;41.822;23.564;2022-10-31T06:06:52;82.93;;;39.67;;
10144;SDS011;5113;41.822;23.564;2022-10-31T06:09:58;46.63;;;24.93;;
10144;SDS011;5113;41.822;23.564;2022-10-31T06:13:06;55.07;;;30.80;;
10144;SDS011;5113;41.822;23.564;2022-10-31T06:16:12;39.33;;;22.47;;
10144;SDS011;5113;41.822;23.564;2022-10-31T06:19:18;47.07;;;25.17;;
10144;SDS011;5113;41.822;23.564;2022-10-31T06:22:24;40.00;;;21.97;;
10144;SDS011;5113;41.822;23.564;2022-10-31T06:25:31;43.27;;;22.60;;
10144;SDS011;5113;41.822;23.564;2022-10-31T06:28:40;38.43;;;17.80;;
10144;SDS011;5113;41.822;23.564;2022-10-31T06:31:46;47.20;;;25.37;;
10144;SDS011;5113;41.822;23.564;2022-10-31T06:34:52;43.33;;;25.70;;
10144;SDS011;5113;41.822;23.564;2022-10-31T06:37:59;42.67;;;23.47;;
10144;SDS011;5113;41.822;23.564;2022-10-31T06:41:05;41.53;;;24.27;;
10144;SDS011;5113;41.822;23.564;2022-10-31T06:44:13;60.87;;;34.60;;
10144;SDS011;5113;41.822;23.564;2022-10-31T06:47:20;34.83;;;23.17;;
10144;SDS011;5113;41.822;23.564;2022-10-31T06:50:26;43.97;;;26.53;;
10144;SDS011;5113;41.822;23.564;2022-10-31T06:53:33;50.90;;;22.37;;
10144;SDS011;5113;41.822;23.564;2022-10-31T06:56:39;39.63;;;22.87;;
10144;SDS011;5113;41.822;23.564;2022-10-31T06:59:47;44.70;;;23.27;;
10144;SDS011;5113;41.822;23.564;2022-10-31T07:02:54;49.97;;;22.27;;
10144;SDS011;5113;41.822;23.564;2022-10-31T07:06:01;41.13;;;22.23;;
10144;SDS011;5113;41.822;23.564;2022-10-31T07:09:07;30.73;;;18.90;;
10144;SDS011;5113;41.822;23.564;2022-10-31T07:12:13;39.43;;;21.33;;
10144;SDS011;5113;41.822;23.564;2022-10-31T07:15:22;50.47;;;25.03;;
10144;SDS011;5113;41.822;23.564;2022-10-31T07:18:28;64.00;;;31.97;;
10144;SDS011;5113;41.822;23.564;2022-10-31T07:21:35;47.20;;;27.90;;
10144;SDS011;5113;41.822;23.564;2022-10-31T07:24:41;43.77;;;22.57;;
10144;SDS011;5113;41.822;23.564;2022-10-31T07:27:47;63.60;;;28.40;;
10144;SDS011;5113;41.822;23.564;2022-10-31T07:30:56;41.87;;;23.27;;
10144;SDS011;5113;41.822;23.564;2022-10-31T07:34:03;49.77;;;22.17;;
10144;SDS011;5113;41.822;23.564;2022-10-31T07:37:09;60.57;;;29.33;;
10144;SDS011;5113;41.822;23.564;2022-10-31T07:40:16;78.30;;;33.50;;
10144;SDS011;5113;41.822;23.564;2022-10-31T07:43:23;57.60;;;29.17;;
10144;SDS011;5113;41.822;23.564;2022-10-31T07:46:30;56.70;;;28.73;;
10144;SDS011;5113;41.822;23.564;2022-10-31T07:49:36;57.47;;;27.50;;
10144;SDS011;5113;41.822;23.564;2022-10-31T07:52:43;70.23;;;30.77;;
10144;SDS011;5113;41.822;23.564;2022-10-31T07:55:49;70.80;;;36.93;;
10144;SDS011;5113;41.822;23.564;2022-10-31T07:58:56;58.67;;;29.63;;
10144;SDS011;5113;41.822;23.564;2022-10-31T08:02:04;52.47;;;30.73;;
10144;SDS011;5113;41.822;23.564;2022-10-31T08:05:11;83.00;;;43.50;;
10144;SDS011;5113;41.822;23.564;2022-10-31T08:08:18;74.10;;;37.60;;
10144;SDS011;5113;41.822;23.564;2022-10-31T08:11:24;64.43;;;32.43;;
10144;SDS011;5113;41.822;23.564;2022-10-31T08:14:30;83.70;;;41.27;;
10144;SDS011;5113;41.822;23.564;2022-10-31T08:17:38;66.37;;;33.67;;
10144;SDS011;5113;41.822;23.564;2022-10-31T08:20:44;73.57;;;36.37;;
10144;SDS011;5113;41.822;23.564;2022-10-31T08:23:50;63.57;;;32.83;;
10144;SDS011;5113;41.822;23.564;2022-10-31T08:26:56;53.83;;;27.77;;
10144;SDS011;5113;41.822;23.564;2022-10-31T08:30:03;51.20;;;26.73;;
10144;SDS011;5113;41.822;23.564;2022-10-31T08:33:13;109.37;;;41.97;;
10144;SDS011;5113;41.822;23.564;2022-10-31T08:36:21;85.43;;;35.30;;
10144;SDS011;5113;41.822;23.564;2022-10-31T08:39:27;54.33;;;24.27;;
10144;SDS011;5113;41.822;23.564;2022-10-31T08:42:33;57.77;;;29.37;;
10144;SDS011;5113;41.822;23.564;2022-10-31T08:45:40;44.90;;;24.63;;
10144;SDS011;5113;41.822;23.564;2022-10-31T08:48:48;56.67;;;26.97;;
10144;SDS011;5113;41.822;23.564;2022-10-31T08:51:54;53.07;;;28.17;;
10144;SDS011;5113;41.822;23.564;2022-10-31T08:55:00;44.07;;;24.47;;
10144;SDS011;5113;41.822;23.564;2022-10-31T08:58:08;33.73;;;20.77;;
10144;SDS011;5113;41.822;23.564;2022-10-31T09:01:16;34.00;;;18.30;;
10144;SDS011;5113;41.822;23.564;2022-10-31T09:04:24;21.33;;;13.83;;
10144;SDS011;5113;41.822;23.564;2022-10-31T09:07:30;21.67;;;13.03;;
10144;SDS011;5113;41.822;23.564;2022-10-31T09:10:37;16.03;;;8.63;;
10144;SDS011;5113;41.822;23.564;2022-10-31T09:13:43;6.53;;;4.53;;
10144;SDS011;5113;41.822;23.564;2022-10-31T09:16:50;5.33;;;3.90;;
10144;SDS011;5113;41.822;23.564;2022-10-31T09:19:58;3.43;;;2.67;;
10144;SDS011;5113;41.822;23.564;2022-10-31T09:23:04;3.10;;;2.80;;
10144;SDS011;5113;41.822;23.564;2022-10-31T09:26:12;5.20;;;3.50;;
10144;SDS011;5113;41.822;23.564;2022-10-31T09:29:18;3.80;;;2.80;;
10144;SDS011;5113;41.822;23.564;2022-10-31T09:32:24;5.77;;;2.60;;
10144;SDS011;5113;41.822;23.564;2022-10-31T09:35:32;2.03;;;1.70;;
10144;SDS011;5113;41.822;23.564;2022-10-31T09:38:39;2.07;;;1.90;;
10144;SDS011;5113;41.822;23.564;2022-10-31T09:41:50;1.93;;;1.83;;
10144;SDS011;5113;41.822;23.564;2022-10-31T09:45:14;6.53;;;2.30;;
10144;SDS011;5113;41.822;23.564;2022-10-31T09:48:27;4.80;;;3.00;;
10144;SDS011;5113;41.822;23.564;2022-10-31T09:51:45;3.10;;;2.87;;
10144;SDS011;5113;41.822;23.564;2022-10-31T09:54:58;4.27;;;2.77;;
10144;SDS011;5113;41.822;23.564;2022-10-31T09:58:08;2.23;;;2.13;;
10144;SDS011;5113;41.822;23.564;2022-10-31T10:01:25;2.67;;;2.27;;
10144;SDS011;5113;41.822;23.564;2022-10-31T10:04:38;2.23;;;1.93;;
10144;SDS011;5113;41.822;23.564;2022-10-31T10:07:54;3.30;;;2.33;;
10144;SDS011;5113;41.822;23.564;2022-10-31T10:11:08;2.13;;;2.03;;
10144;SDS011;5113;41.822;23.564;2022-10-31T10:14:31;2.10;;;1.80;;
10144;SDS011;5113;41.822;23.564;2022-10-31T10:17:49;1.10;;;1.10;;
10144;SDS011;5113;41.822;23.564;2022-10-31T10:21:11;2.00;;;1.90;;
10144;SDS011;5113;41.822;23.564;2022-10-31T10:24:33;4.87;;;4.27;;
10144;SDS011;5113;41.822;23.564;2022-10-31T10:28:01;7.07;;;4.70;;
10144;SDS011;5113;41.822;23.564;2022-10-31T10:31:14;3.43;;;3.13;;
10144;SDS011;5113;41.822;23.564;2022-10-31T10:34:22;4.37;;;3.57;;
10144;SDS011;5113;41.822;23.564;2022-10-31T10:37:34;4.20;;;3.30;;
10144;SDS011;5113;41.822;23.564;2022-10-31T10:40:45;9.97;;;4.73;;
10144;SDS011;5113;41.822;23.564;2022-10-31T10:43:52;3.03;;;2.60;;
10144;SDS011;5113;41.822;23.564;2022-10-31T10:46:59;6.00;;;2.63;;
10144;SDS011;5113;41.822;23.564;2022-10-31T10:50:25;2.50;;;2.00;;
10144;SDS011;5113;41.822;23.564;2022-10-31T10:53:42;4.30;;;1.60;;
10144;SDS011;5113;41.822;23.564;2022-10-31T10:57:19;2.43;;;2.23;;
10144;SDS011;5113;41.822;23.564;2022-10-31T11:00:30;2.10;;;2.00;;
10144;SDS011;5113;41.822;23.564;2022-10-31T11:03:40;2.37;;;2.13;;
10144;SDS011;5113;41.822;23.564;2022-10-31T11:06:55;2.27;;;2.07;;
10144;SDS011;5113;41.822;23.564;2022-10-31T11:10:03;1.97;;;1.87;;
10144;SDS011;5113;41.822;23.564;2022-10-31T11:13:21;5.40;;;2.77;;
10144;SDS011;5113;41.822;23.564;2022-10-31T11:16:30;3.13;;;2.60;;
10144;SDS011;5113;41.822;23.564;2022-10-31T11:19:44;2.83;;;2.00;;
10144;SDS011;5113;41.822;23.564;2022-10-31T11:22:55;2.20;;;2.10;;
10144;SDS011;5113;41.822;23.564;2022-10-31T11:26:16;4.60;;;3.43;;
10144;SDS011;5113;41.822;23.564;2022-10-31T11:29:27;6.03;;;2.90;;
10144;SDS011;5113;41.822;23.564;2022-10-31T11:32:33;4.30;;;3.83;;
10144;SDS011;5113;41.822;23.564;2022-10-31T11:35:39;11.70;;;5.73;;
10144;SDS011;5113;41.822;23.564;2022-10-31T11:38:46;4.33;;;2.67;;
10144;SDS011;5113;41.822;23.564;2022-10-31T11:41:52;6.90;;;4.93;;
10144;SDS011;5113;41.822;23.564;2022-10-31T11:45:02;11.53;;;7.50;;
10144;SDS011;5113;41.822;23.564;2022-10-31T11:48:19;2.87;;;2.50;;
10144;SDS011;5113;41.822;23.564;2022-10-31T11:51:27;1.97;;;1.83;;
10144;SDS011;5113;41.822;23.564;2022-10-31T11:54:38;4.40;;;2.80;;
10144;SDS011;5113;41.822;23.564;2022-10-31T11:57:51;4.67;;;2.70;;
10144;SDS011;5113;41.822;23.564;2022-10-31T12:01:00;2.20;;;2.10;;
10144;SDS011;5113;41.822;23.564;2022-10-31T12:04:07;2.87;;;2.67;;
10144;SDS011;5113;41.822;23.564;2022-10-31T12:07:15;3.00;;;2.60;;
10144;SDS011;5113;41.822;23.564;2022-10-31T12:10:21;5.27;;;2.80;;
10144;SDS011;5113;41.822;23.564;2022-10-31T12:13:37;2.30;;;2.20;;
10144;SDS011;5113;41.822;23.564;2022-10-31T12:16:50;2.73;;;2.20;;
10144;SDS011;5113;41.822;23.564;2022-10-31T12:20:03;2.63;;;2.43;;
10144;SDS011;5113;41.822;23.564;2022-10-31T12:23:24;6.07;;;4.33;;
10144;SDS011;5113;41.822;23.564;2022-10-31T12:26:40;6.07;;;4.43;;
10144;SDS011;5113;41.822;23.564;2022-10-31T12:29:57;7.47;;;5.70;;
10144;SDS011;5113;41.822;23.564;2022-10-31T12:33:23;2.97;;;2.70;;
10144;SDS011;5113;41.822;23.564;2022-10-31T12:36:41;4.93;;;2.60;;
10144;SDS011;5113;41.822;23.564;2022-10-31T12:39:57;9.77;;;3.97;;
10144;SDS011;5113;41.822;23.564;2022-10-31T12:43:16;2.77;;;2.50;;
10144;SDS011;5113;41.822;23.564;2022-10-31T12:46:41;4.70;;;2.90;;
10144;SDS011;5113;41.822;23.564;2022-10-31T12:50:06;3.20;;;2.67;;
10144;SDS011;5113;41.822;23.564;2022-10-31T12:53:35;3.63;;;2.50;;
10144;SDS011;5113;41.822;23.564;2022-10-31T12:56:54;3.23;;;2.90;;
10144;SDS011;5113;41.822;23.564;2022-10-31T13:00:11;12.00;;;4.57;;
10144;SDS011;5113;41.822;23.564;2022-10-31T13:03:22;4.80;;;2.33;;
10144;SDS011;5113;41.822;23.564;2022-10-31T13:06:36;2.17;;;1.97;;
10144;SDS011;5113;41.822;23.564;2022-10-31T13:09:50;3.67;;;2.03;;
10144;SDS011;5113;41.822;23.564;2022-10-31T13:13:02;2.20;;;2.00;;
10144;SDS011;5113;41.822;23.564;2022-10-31T13:16:14;2.20;;;2.00;;
10144;SDS011;5113;41.822;23.564;2022-10-31T13:19:22;4.90;;;1.50;;
10144;SDS011;5113;41.822;23.564;2022-10-31T13:22:33;1.60;;;1.60;;
10144;SDS011;5113;41.822;23.564;2022-10-31T13:25:42;2.83;;;1.80;;
10144;SDS011;5113;41.822;23.564;2022-10-31T13:28:54;2.23;;;2.13;;
10144;SDS011;5113;41.822;23.564;2022-10-31T13:32:08;2.07;;;1.83;;
10144;SDS011;5113;41.822;23.564;2022-10-31T13:35:18;4.60;;;2.00;;
10144;SDS011;5113;41.822;23.564;2022-10-31T13:38:33;2.20;;;2.10;;
10144;SDS011;5113;41.822;23.564;2022-10-31T13:41:44;2.80;;;2.57;;
10144;SDS011;5113;41.822;23.564;2022-10-31T13:44:53;2.10;;;1.90;;
10144;SDS011;5113;41.822;23.564;2022-10-31T13:48:00;2.03;;;1.90;;
10144;SDS011;5113;41.822;23.564;2022-10-31T13:51:27;2.40;;;2.20;;
10144;SDS011;5113;41.822;23.564;2022-10-31T13:54:36;2.37;;;2.23;;
10144;SDS011;5113;41.822;23.564;2022-10-31T13:57:43;1.73;;;1.63;;
10144;SDS011;5113;41.822;23.564;2022-10-31T14:01:02;1.67;;;1.60;;
10144;SDS011;5113;41.822;23.564;2022-10-31T14:04:19;1.60;;;1.60;;
10144;SDS011;5113;41.822;23.564;2022-10-31T14:07:29;1.80;;;1.70;;
10144;SDS011;5113;41.822;23.564;2022-10-31T14:10:38;2.53;;;2.30;;
10144;SDS011;5113;41.822;23.564;2022-10-31T14:13:52;2.77;;;2.67;;
10144;SDS011;5113;41.822;23.564;2022-10-31T14:17:00;4.50;;;3.27;;
10144;SDS011;5113;41.822;23.564;2022-10-31T14:20:21;4.60;;;2.33;;
10144;SDS011;5113;41.822;23.564;2022-10-31T14:23:35;3.07;;;2.70;;
10144;SDS011;5113;41.822;23.564;2022-10-31T14:26:52;7.73;;;3.00;;
10144;SDS011;5113;41.822;23.564;2022-10-31T14:30:07;3.47;;;2.30;;
10144;SDS011;5113;41.822;23.564;2022-10-31T14:33:20;2.93;;;2.40;;
10144;SDS011;5113;41.822;23.564;2022-10-31T14:36:31;2.03;;;1.87;;
10144;SDS011;5113;41.822;23.564;2022-10-31T14:40:10;6.33;;;3.03;;
10144;SDS011;5113;41.822;23.564;2022-10-31T14:43:34;2.30;;;2.10;;
10144;SDS011;5113;41.822;23.564;2022-10-31T14:46:53;3.63;;;2.03;;
10144;SDS011;5113;41.822;23.564;2022-10-31T14:53:43;2.10;;;1.87;;
10144;SDS011;5113;41.822;23.564;2022-10-31T14:56:53;2.37;;;2.17;;
10144;SDS011;5113;41.822;23.564;2022-10-31T15:00:04;3.37;;;3.07;;
10144;SDS011;5113;41.822;23.564;2022-10-31T15:03:14;4.67;;;4.10;;
10144;SDS011;5113;41.822;23.564;2022-10-31T15:06:22;4.77;;;4.27;;
10144;SDS011;5113;41.822;23.564;2022-10-31T15:09:30;6.90;;;3.30;;
10144;SDS011;5113;41.822;23.564;2022-10-31T15:12:37;8.47;;;4.60;;
10144;SDS011;5113;41.822;23.564;2022-10-31T15:15:45;4.10;;;3.67;;
10144;SDS011;5113;41.822;23.564;2022-10-31T15:18:56;10.00;;;5.00;;
10144;SDS011;5113;41.822;23.564;2022-10-31T15:22:05;8.90;;;5.50;;
10144;SDS011;5113;41.822;23.564;2022-10-31T15:25:14;14.50;;;7.30;;
10144;SDS011;5113;41.822;23.564;2022-10-31T15:28:24;36.27;;;19.03;;
10144;SDS011;5113;41.822;23.564;2022-10-31T15:31:33;43.33;;;22.43;;
10144;SDS011;5113;41.822;23.564;2022-10-31T15:34:39;51.23;;;24.43;;
10144;SDS011;5113;41.822;23.564;2022-10-31T15:37:47;78.67;;;43.33;;
10144;SDS011;5113;41.822;23.564;2022-10-31T15:40:54;56.93;;;30.87;;
10144;SDS011;5113;41.822;23.564;2022-10-31T15:44:04;165.53;;;57.10;;
10144;SDS011;5113;41.822;23.564;2022-10-31T15:47:19;101.13;;;54.27;;
10144;SDS011;5113;41.822;23.564;2022-10-31T15:50:30;77.47;;;43.47;;
10144;SDS011;5113;41.822;23.564;2022-10-31T15:53:41;129.13;;;66.90;;
10144;SDS011;5113;41.822;23.564;2022-10-31T15:56:50;45.23;;;25.33;;
10144;SDS011;5113;41.822;23.564;2022-10-31T15:59:57;62.80;;;31.47;;
10144;SDS011;5113;41.822;23.564;2022-10-31T16:03:06;53.87;;;31.00;;
10144;SDS011;5113;41.822;23.564;2022-10-31T16:06:25;58.60;;;40.57;;
10144;SDS011;5113;41.822;23.564;2022-10-31T16:09:31;64.90;;;37.30;;
10144;SDS011;5113;41.822;23.564;2022-10-31T16:12:42;38.03;;;22.47;;
10144;SDS011;5113;41.822;23.564;2022-10-31T16:15:52;77.53;;;38.10;;
10144;SDS011;5113;41.822;23.564;2022-10-31T16:19:23;49.20;;;31.47;;
10144;SDS011;5113;41.822;23.564;2022-10-31T16:22:31;56.97;;;30.57;;
10144;SDS011;5113;41.822;23.564;2022-10-31T16:25:41;69.13;;;33.83;;
10144;SDS011;5113;41.822;23.564;2022-10-31T16:28:50;91.37;;;46.10;;
10144;SDS011;5113;41.822;23.564;2022-10-31T16:35:33;81.70;;;41.90;;
10144;SDS011;5113;41.822;23.564;2022-10-31T16:38:41;82.97;;;41.33;;
10144;SDS011;5113;41.822;23.564;2022-10-31T16:41:49;106.70;;;55.13;;
10144;SDS011;5113;41.822;23.564;2022-10-31T16:44:57;97.13;;;46.63;;
10144;SDS011;5113;41.822;23.564;2022-10-31T16:48:05;107.70;;;53.13;;
10144;SDS011;5113;41.822;23.564;2022-10-31T16:51:16;98.90;;;50.73;;
10144;SDS011;5113;41.822;23.564;2022-10-31T16:54:23;152.60;;;66.73;;
10144;SDS011;5113;41.822;23.564;2022-10-31T16:57:29;130.33;;;56.73;;
10144;SDS011;5113;41.822;23.564;2022-10-31T17:00:37;152.63;;;68.67;;
10144;SDS011;5113;41.822;23.564;2022-10-31T17:03:44;148.70;;;69.33;;
10144;SDS011;5113;41.822;23.564;2022-10-31T17:06:51;124.20;;;61.77;;
10144;SDS011;5113;41.822;23.564;2022-10-31T17:09:57;124.80;;;60.70;;
10144;SDS011;5113;41.822;23.564;2022-10-31T17:13:04;134.50;;;65.47;;
10144;SDS011;5113;41.822;23.564;2022-10-31T17:16:13;115.07;;;58.57;;
10144;SDS011;5113;41.822;23.564;2022-10-31T17:19:19;147.37;;;66.73;;
10144;SDS011;5113;41.822;23.564;2022-10-31T17:22:27;137.73;;;70.90;;
10144;SDS011;5113;41.822;23.564;2022-10-31T17:25:34;168.23;;;84.47;;
10144;SDS011;5113;41.822;23.564;2022-10-31T17:28:40;152.00;;;72.80;;
10144;SDS011;5113;41.822;23.564;2022-10-31T17:31:46;86.43;;;41.90;;
10144;SDS011;5113;41.822;23.564;2022-10-31T17:34:52;199.10;;;88.33;;
10144;SDS011;5113;41.822;23.564;2022-10-31T17:37:59;129.97;;;60.23;;
10144;SDS011;5113;41.822;23.564;2022-10-31T17:41:06;155.17;;;68.53;;
10144;SDS011;5113;41.822;23.564;2022-10-31T17:44:14;115.93;;;51.67;;
10144;SDS011;5113;41.822;23.564;2022-10-31T17:47:21;121.53;;;46.30;;
10144;SDS011;5113;41.822;23.564;2022-10-31T17:50:27;106.57;;;47.03;;
10144;SDS011;5113;41.822;23.564;2022-10-31T17:53:34;100.27;;;50.20;;
10144;SDS011;5113;41.822;23.564;2022-10-31T17:56:40;87.63;;;41.03;;
10144;SDS011;5113;41.822;23.564;2022-10-31T17:59:46;72.10;;;27.47;;
10144;SDS011;5113;41.822;23.564;2022-10-31T18:02:53;42.33;;;22.67;;
10144;SDS011;5113;41.822;23.564;2022-10-31T18:05:59;84.60;;;44.53;;
10144;SDS011;5113;41.822;23.564;2022-10-31T18:09:07;87.17;;;42.30;;
10144;SDS011;5113;41.822;23.564;2022-10-31T18:12:13;144.13;;;60.93;;
10144;SDS011;5113;41.822;23.564;2022-10-31T18:15:19;112.67;;;52.77;;
10144;SDS011;5113;41.822;23.564;2022-10-31T18:18:26;132.47;;;65.07;;
10144;SDS011;5113;41.822;23.564;2022-10-31T18:21:32;90.87;;;49.60;;
10144;SDS011;5113;41.822;23.564;2022-10-31T18:24:39;99.20;;;46.97;;
10144;SDS011;5113;41.822;23.564;2022-10-31T18:27:46;94.83;;;42.97;;
10144;SDS011;5113;41.822;23.564;2022-10-31T18:30:52;62.93;;;34.00;;
10144;SDS011;5113;41.822;23.564;2022-10-31T18:33:59;50.63;;;25.70;;
10144;SDS011;5113;41.822;23.564;2022-10-31T18:37:05;38.03;;;18.67;;
10144;SDS011;5113;41.822;23.564;2022-10-31T18:40:13;71.67;;;29.23;;
10144;SDS011;5113;41.822;23.564;2022-10-31T18:43:20;26.47;;;13.90;;
10144;SDS011;5113;41.822;23.564;2022-10-31T18:46:26;31.00;;;16.33;;
10144;SDS011;5113;41.822;23.564;2022-10-31T18:49:33;35.87;;;16.03;;
10144;SDS011;5113;41.822;23.564;2022-10-31T18:52:39;48.07;;;23.13;;